Time;durP1;ratioP1;P1;durP2;ratioP2;P2;SDS_P1;SDS_P2;PMS_P1;PMS_P2;Temp;Humidity;BMP_temperature;BMP_pressure;BME280_temperature;BME280_humidity;BME280_pressure;Samples;Min_cycle;Max_cycle;Signal;HPM_P1;HPM_P2
2021/04/22 00:00:23;;;;;;;12.07;7.97;;;;;;;7.36;72.36;97859.78;1753501;79;21256;-80
2021/04/22 00:02:53;;;;;;;10.65;7.42;;;;;;;7.36;72.50;97858.94;1770257;80;21129;-80
2021/04/22 00:05:34;;;;;;;10.28;7.33;;;;;;;7.34;72.38;97852.80;1770736;81;21138;-80
2021/04/22 00:08:08;;;;;;;10.63;7.47;;;;;;;7.33;72.28;97857.66;1769047;81;21130;-80
2021/04/22 00:10:50;;;;;;;12.75;7.65;;;;;;;7.26;73.27;97851.63;1741503;80;21284;-80
2021/04/22 00:13:22;;;;;;;13.10;8.63;;;;;;;7.18;73.18;97847.81;1740419;82;21137;-80
2021/04/22 00:15:51;;;;;;;12.80;9.10;;;;;;;7.12;72.87;97843.55;1740254;82;21299;-80
2021/04/22 00:18:21;;;;;;;14.07;9.70;;;;;;;7.04;74.48;97848.52;1742564;80;21150;-80
2021/04/22 00:20:49;;;;;;;15.50;10.18;;;;;;;6.94;74.69;97841.23;1740718;80;21138;-80
2021/04/22 00:23:18;;;;;;;18.52;9.58;;;;;;;6.91;75.20;97841.27;1741125;79;21130;-80
2021/04/22 00:25:47;;;;;;;20.17;10.20;;;;;;;6.90;73.75;97836.47;1757943;81;21520;-80
2021/04/22 00:28:16;;;;;;;15.00;9.68;;;;;;;6.90;73.91;97840.86;1753184;81;21296;-80
2021/04/22 00:30:46;;;;;;;16.27;10.98;;;;;;;6.89;74.61;97843.08;1790044;80;21127;-80
2021/04/22 00:33:17;;;;;;;21.75;11.88;;;;;;;6.87;74.30;97837.83;1795534;80;21264;-80
2021/04/22 00:35:56;;;;;;;17.57;11.00;;;;;;;6.90;73.93;97840.42;1781054;79;23127;-81
2021/04/22 00:38:23;;;;;;;16.90;10.43;;;;;;;6.87;74.78;97844.41;1753990;81;21146;-79
2021/04/22 00:40:51;;;;;;;20.60;11.38;;;;;;;6.88;74.99;97831.66;1725484;82;21179;-79
2021/04/22 00:43:21;;;;;;;19.57;11.28;;;;;;;6.89;74.82;97837.81;1754454;82;21265;-80
2021/04/22 00:45:50;;;;;;;18.12;11.70;;;;;;;6.89;74.45;97836.49;1733562;81;21121;-79
2021/04/22 00:48:24;;;;;;;17.15;10.65;;;;;;;6.88;74.55;97836.08;1724855;82;21115;-80
2021/04/22 00:50:55;;;;;;;17.85;11.45;;;;;;;6.87;74.55;97840.47;1742338;82;21261;-80
2021/04/22 00:53:25;;;;;;;20.35;11.78;;;;;;;6.87;75.04;97839.15;1730453;82;21139;-80
2021/04/22 00:55:55;;;;;;;18.07;11.53;;;;;;;6.87;75.23;97841.78;1731297;82;21115;-80
2021/04/22 00:58:23;;;;;;;17.35;11.25;;;;;;;6.84;74.55;97833.92;1754610;82;21121;-79
2021/04/22 01:00:58;;;;;;;18.37;11.60;;;;;;;6.84;75.11;97837.44;1753951;82;21147;-79
2021/04/22 01:03:28;;;;;;;19.12;12.00;;;;;;;6.84;74.93;97834.80;1754525;82;21644;-80
2021/04/22 01:06:02;;;;;;;19.55;12.13;;;;;;;6.83;74.66;97835.70;1748109;82;21476;-79
2021/04/22 01:08:30;;;;;;;17.27;11.85;;;;;;;6.81;74.50;97836.16;1724639;83;21122;-80
2021/04/22 01:10:59;;;;;;;19.37;11.88;;;;;;;6.79;74.62;97829.18;1724589;83;21508;-79
2021/04/22 01:13:26;;;;;;;20.65;11.78;;;;;;;6.77;74.70;97834.94;1724607;82;21560;-80
2021/04/22 01:15:54;;;;;;;16.73;11.12;;;;;;;6.74;74.85;97830.59;1736516;81;21245;-80
2021/04/22 01:18:22;;;;;;;21.45;13.10;;;;;;;6.72;75.25;97833.67;1732908;81;21553;-80
2021/04/22 01:20:52;;;;;;;17.90;9.83;;;;;;;6.71;75.24;97840.73;1724802;83;21178;-79
2021/04/22 01:23:20;;;;;;;20.23;11.45;;;;;;;6.69;75.03;97835.91;1724767;83;21481;-80
2021/04/22 01:25:51;;;;;;;16.75;10.78;;;;;;;6.64;75.17;97832.48;1749708;82;21438;-80
2021/04/22 01:28:22;;;;;;;15.63;9.68;;;;;;;6.62;75.26;97836.04;1755035;82;21544;-80
2021/04/22 01:30:56;;;;;;;14.50;10.15;;;;;;;6.58;75.18;97835.23;1754704;81;21268;-80
2021/04/22 01:33:27;;;;;;;14.73;10.47;;;;;;;6.59;75.35;97835.21;1754854;82;21250;-80
2021/04/22 01:35:59;;;;;;;18.07;11.68;;;;;;;6.59;75.33;97830.38;1729376;81;21210;-80
2021/04/22 01:38:29;;;;;;;17.98;11.18;;;;;;;6.57;75.86;97826.45;1725508;82;21171;-80
2021/04/22 01:40:59;;;;;;;17.45;10.03;;;;;;;6.56;76.12;97826.03;1750884;82;21111;-80
2021/04/22 01:43:28;;;;;;;14.28;9.90;;;;;;;6.57;76.43;97820.33;1742827;82;21138;-80
2021/04/22 01:45:56;;;;;;;15.58;9.28;;;;;;;6.59;76.72;97831.70;1742320;82;21091;-80
2021/04/22 01:48:26;;;;;;;16.00;9.48;;;;;;;6.62;76.78;97828.14;1725075;83;21150;-80
2021/04/22 01:50:54;;;;;;;15.50;10.40;;;;;;;6.67;76.86;97828.50;1725025;83;21521;-80
2021/04/22 01:53:23;;;;;;;16.32;9.55;;;;;;;6.71;77.11;97831.51;1727558;82;21162;-79
2021/04/22 01:55:52;;;;;;;15.48;9.30;;;;;;;6.74;77.08;97835.86;1754957;81;21158;-80
2021/04/22 01:58:23;;;;;;;15.05;9.10;;;;;;;6.76;77.00;97831.42;1728047;82;21126;-80
2021/04/22 02:00:55;;;;;;;14.47;9.33;;;;;;;6.73;77.05;97827.54;1725007;83;21130;-80
2021/04/22 02:03:26;;;;;;;17.15;10.30;;;;;;;6.68;77.29;97830.23;1725685;82;21480;-80
2021/04/22 02:05:55;;;;;;;13.22;9.20;;;;;;;6.63;76.95;97829.44;1752549;82;21135;-80
2021/04/22 02:08:23;;;;;;;16.50;9.38;;;;;;;6.56;76.79;97827.81;1734974;82;21141;-80
2021/04/22 02:10:51;;;;;;;14.87;9.08;;;;;;;6.48;76.99;97831.89;1698860;83;21159;-80
2021/04/22 02:13:21;;;;;;;16.62;9.60;;;;;;;6.40;77.00;97825.86;1726451;82;21513;-80
2021/04/22 02:15:49;;;;;;;16.48;9.13;;;;;;;6.31;76.64;97830.83;1754716;82;21116;-79
2021/04/22 02:18:18;;;;;;;15.00;9.20;;;;;;;6.22;76.51;97832.28;1754833;82;21142;-80
2021/04/22 02:20:48;;;;;;;18.60;10.05;;;;;;;6.09;77.02;97827.18;1753940;82;21134;-80
2021/04/22 02:23:22;;;;;;;13.88;9.38;;;;;;;6.01;76.76;97827.26;1725459;82;21135;-80
2021/04/22 02:25:49;;;;;;;16.20;9.53;;;;;;;5.93;76.48;97821.22;1746821;82;21154;-80
2021/04/22 02:28:19;;;;;;;14.95;9.60;;;;;;;5.85;76.63;97820.48;1725082;82;21158;-80
2021/04/22 02:30:47;;;;;;;16.93;10.10;;;;;;;5.72;76.46;97825.88;1679100;85;21182;-80
2021/04/22 02:33:18;;;;;;;16.17;10.08;;;;;;;5.65;76.66;97820.30;1731221;82;21127;-80
2021/04/22 02:35:49;;;;;;;15.98;10.38;;;;;;;5.57;76.85;97828.28;1724827;83;21182;-80
2021/04/22 02:38:18;;;;;;;17.23;11.03;;;;;;;5.47;77.41;97831.44;1724948;83;21183;-80
2021/04/22 02:40:49;;;;;;;16.27;10.68;;;;;;;5.40;77.55;97837.67;1725080;83;21130;-80
2021/04/22 02:43:20;;;;;;;18.20;10.98;;;;;;;5.35;77.44;97835.08;1725793;82;21158;-80
2021/04/22 02:45:54;;;;;;;15.98;10.15;;;;;;;5.27;78.08;97843.05;1750336;82;21472;-80
2021/04/22 02:48:26;;;;;;;17.25;11.28;;;;;;;5.21;78.68;97848.80;1724902;83;21147;-80
2021/04/22 02:50:56;;;;;;;22.58;10.90;;;;;;;5.18;78.01;97848.39;1724689;83;21131;-80
2021/04/22 02:53:24;;;;;;;20.27;10.80;;;;;;;5.16;77.98;97848.87;1725420;82;21146;-81
2021/04/22 02:55:53;;;;;;;19.82;10.82;;;;;;;5.10;78.08;97841.02;1738432;82;21151;-80
2021/04/22 02:58:27;;;;;;;18.40;11.08;;;;;;;5.04;77.90;97844.61;1754860;82;21257;-80
2021/04/22 03:00:56;;;;;;;20.05;11.08;;;;;;;4.98;78.08;97832.85;1746131;81;21095;-80
2021/04/22 03:03:25;;;;;;;17.27;10.63;;;;;;;4.89;78.23;97833.36;1725648;82;21111;-80
2021/04/22 03:05:56;;;;;;;17.77;11.05;;;;;;;4.82;78.10;97838.22;1725127;82;21088;-80
2021/04/22 03:08:24;;;;;;;18.98;11.00;;;;;;;4.75;78.45;97843.11;1725276;83;21122;-80
2021/04/22 03:10:52;;;;;;;15.60;9.63;;;;;;;4.70;78.75;97839.20;1724840;83;21150;-80
2021/04/22 03:13:20;;;;;;;17.27;10.40;;;;;;;4.68;78.92;97846.23;1725106;82;21478;-80
2021/04/22 03:15:51;;;;;;;18.12;10.82;;;;;;;4.67;78.59;97843.18;1724944;83;21119;-79
2021/04/22 03:18:18;;;;;;;22.15;10.70;;;;;;;4.64;78.90;97843.19;1724953;82;21135;-79
2021/04/22 03:20:46;;;;;;;16.42;10.75;;;;;;;4.62;78.82;97847.59;1729220;82;21190;-80
2021/04/22 03:23:13;;;;;;;19.87;11.35;;;;;;;4.65;78.91;97850.17;1746274;81;21114;-80
2021/04/22 03:25:44;;;;;;;23.95;11.85;;;;;;;4.68;78.94;97850.59;1698453;83;21162;-81
2021/04/22 03:28:11;;;;;;;20.85;11.43;;;;;;;4.68;79.17;97842.72;1749472;82;21517;-80
2021/04/22 03:30:39;;;;;;;19.70;11.65;;;;;;;4.66;78.94;97845.38;1754875;82;21162;-80
2021/04/22 03:33:07;;;;;;;21.25;12.73;;;;;;;4.64;78.88;97844.97;1751246;82;21147;-80
2021/04/22 03:35:35;;;;;;;23.52;12.45;;;;;;;4.60;78.97;97840.16;1754887;81;21103;-80
2021/04/22 03:38:03;;;;;;;20.57;12.00;;;;;;;4.59;78.95;97844.55;1754776;81;21127;-80
2021/04/22 03:40:31;;;;;;;21.02;12.28;;;;;;;4.59;79.06;97847.61;1755367;82;21134;-80
2021/04/22 03:42:58;;;;;;;24.80;13.83;;;;;;;4.57;79.17;97847.62;1749973;82;21123;-80
2021/04/22 03:45:26;;;;;;;22.07;12.68;;;;;;;4.58;79.23;97846.76;1740655;82;21152;-80
2021/04/22 03:47:54;;;;;;;25.23;13.43;;;;;;;4.61;79.28;97850.66;1755030;82;21130;-80
2021/04/22 03:50:27;;;;;;;21.55;13.10;;;;;;;4.64;79.34;97843.66;1727617;82;21135;-80
2021/04/22 03:52:56;;;;;;;20.72;12.07;;;;;;;4.66;79.77;97849.32;1737411;82;21131;-80
2021/04/22 03:55:24;;;;;;;22.15;12.80;;;;;;;4.73;80.02;97857.98;1724862;83;21146;-80
2021/04/22 03:57:52;;;;;;;26.68;14.03;;;;;;;4.81;80.19;97852.70;1724959;83;21139;-80
2021/04/22 04:00:23;;;;;;;24.02;13.98;;;;;;;4.86;80.64;97853.07;1724768;83;21135;-79
2021/04/22 04:02:51;;;;;;;25.50;14.73;;;;;;;4.93;80.49;97850.38;1727708;82;21126;-80
2021/04/22 04:05:19;;;;;;;22.37;14.07;;;;;;;5.01;80.87;97859.06;1754739;82;21151;-80
2021/04/22 04:07:46;;;;;;;19.92;13.80;;;;;;;5.10;80.80;97858.09;1754649;82;21147;-80
2021/04/22 04:10:14;;;;;;;25.05;15.20;;;;;;;5.18;80.96;97859.37;1743566;82;21450;-80
2021/04/22 04:12:42;;;;;;;21.85;14.63;;;;;;;5.21;80.95;97861.95;1754021;82;21136;-80
2021/04/22 04:15:11;;;;;;;26.45;15.32;;;;;;;5.26;81.22;97864.08;1732313;82;21135;-80
2021/04/22 04:17:39;;;;;;;25.10;14.70;;;;;;;5.29;81.34;97864.91;1754945;82;21126;-80
2021/04/22 04:20:11;;;;;;;28.73;15.75;;;;;;;5.34;81.73;97868.82;1754720;82;21313;-80
2021/04/22 04:22:39;;;;;;;30.10;16.70;;;;;;;5.39;81.52;97872.27;1754695;82;21255;-80
2021/04/22 04:25:10;;;;;;;24.63;16.40;;;;;;;5.41;81.92;97869.17;1754688;82;21513;-81
2021/04/22 04:27:38;;;;;;;29.23;16.70;;;;;;;5.48;81.44;97872.60;1754742;82;21096;-81
2021/04/22 04:30:09;;;;;;;27.45;17.37;;;;;;;5.51;81.52;97874.33;1754897;82;21127;-80
2021/04/22 04:32:41;;;;;;;27.22;16.85;;;;;;;5.53;81.25;97873.89;1755001;82;21134;-81
2021/04/22 04:35:10;;;;;;;26.95;16.67;;;;;;;5.54;81.22;97869.93;1739853;82;21119;-80
2021/04/22 04:37:40;;;;;;;27.40;16.67;;;;;;;5.55;80.85;97870.34;1754944;81;21131;-80
2021/04/22 04:40:12;;;;;;;33.48;17.57;;;;;;;5.55;80.90;97873.41;1754721;81;21282;-80
2021/04/22 04:42:40;;;;;;;27.95;17.17;;;;;;;5.55;81.01;97870.78;1754771;82;21103;-80
2021/04/22 04:45:13;;;;;;;27.52;17.60;;;;;;;5.60;82.06;97878.63;1729943;82;21460;-81
2021/04/22 04:47:41;;;;;;;29.57;17.82;;;;;;;5.64;82.80;97886.88;1725090;83;21118;-81
2021/04/22 04:50:11;;;;;;;29.45;17.70;;;;;;;5.62;81.68;97880.36;1724807;83;21111;-81
2021/04/22 04:52:40;;;;;;;30.32;18.27;;;;;;;5.65;81.40;97878.13;1724906;83;21477;-81
2021/04/22 04:55:12;;;;;;;27.70;16.52;;;;;;;5.67;81.34;97885.55;1725363;82;21170;-81
2021/04/22 04:57:41;;;;;;;28.73;17.77;;;;;;;5.67;81.65;97875.91;1731215;82;21106;-81
2021/04/22 05:00:12;;;;;;;27.67;17.60;;;;;;;5.70;81.61;97889.47;1732525;82;21180;-81
2021/04/22 05:02:40;;;;;;;31.80;17.65;;;;;;;5.73;81.07;97882.84;1740853;82;21095;-81
2021/04/22 05:05:09;;;;;;;30.27;18.02;;;;;;;5.79;80.80;97881.47;1754927;82;21135;-80
2021/04/22 05:07:38;;;;;;;28.80;18.17;;;;;;;5.83;81.10;97886.24;1750162;82;21140;-80
2021/04/22 05:10:10;;;;;;;29.10;17.05;;;;;;;5.86;81.60;97883.55;1725033;83;21182;-80
2021/04/22 05:12:38;;;;;;;26.20;16.57;;;;;;;5.90;80.99;97883.09;1730171;82;21135;-79
2021/04/22 05:15:07;;;;;;;30.37;18.23;;;;;;;5.97;81.28;97890.47;1754758;82;21632;-80
2021/04/22 05:17:35;;;;;;;29.27;17.12;;;;;;;6.01;81.72;97882.94;1754958;82;21485;-80
2021/04/22 05:20:06;;;;;;;29.85;17.95;;;;;;;6.05;81.49;97885.56;1726347;82;21151;-80
2021/04/22 05:22:35;;;;;;;30.90;17.23;;;;;;;6.11;80.91;97879.36;1727046;82;21168;-80
2021/04/22 05:25:05;;;;;;;29.32;16.80;;;;;;;6.19;81.29;97883.20;1738500;82;21139;-80
2021/04/22 05:27:34;;;;;;;27.35;17.23;;;;;;;6.26;81.02;97882.64;1754768;82;21122;-80
2021/04/22 05:30:04;;;;;;;28.57;17.70;;;;;;;6.33;80.66;97877.73;1755077;82;21140;-80
2021/04/22 05:32:37;;;;;;;29.10;17.50;;;;;;;6.39;80.27;97878.09;1730830;82;21092;-80
2021/04/22 05:35:06;;;;;;;28.00;17.60;;;;;;;6.46;80.73;97877.98;1727631;82;21532;-81
2021/04/22 05:37:35;;;;;;;30.17;17.85;;;;;;;6.56;80.26;97881.33;1721761;83;21151;-81
2021/04/22 05:40:08;;;;;;;32.08;19.48;;;;;;;6.65;80.55;97889.55;1725270;83;21114;-81
2021/04/22 05:42:37;;;;;;;28.42;17.67;;;;;;;6.75;80.38;97885.00;1729861;82;21150;-81
2021/04/22 05:45:06;;;;;;;32.15;18.87;;;;;;;6.83;80.71;97892.77;1755000;82;21162;-81
2021/04/22 05:47:35;;;;;;;29.50;18.20;;;;;;;6.89;80.89;97895.30;1754958;82;21146;-81
2021/04/22 05:50:04;;;;;;;30.85;19.10;;;;;;;6.91;80.06;97887.38;1733166;81;21107;-80
2021/04/22 05:52:33;;;;;;;29.37;17.65;;;;;;;6.93;79.99;97883.83;1726704;82;21147;-80
2021/04/22 05:55:00;;;;;;;27.60;17.90;;;;;;;6.95;79.84;97874.58;1724908;83;21140;-80
2021/04/22 05:57:28;;;;;;;26.30;17.55;;;;;;;7.01;79.71;97878.42;1725354;83;21143;-80
2021/04/22 05:59:56;;;;;;;35.08;20.62;;;;;;;7.07;79.68;97878.77;1724896;83;21210;-80
2021/04/22 06:02:24;;;;;;;33.80;19.40;;;;;;;7.16;79.50;97882.57;1726598;82;21485;-80
2021/04/22 06:04:54;;;;;;;31.80;18.62;;;;;;;7.25;79.28;97889.00;1726880;82;21122;-80
2021/04/22 06:07:21;;;;;;;30.95;18.23;;;;;;;7.34;79.15;97891.03;1754940;82;21155;-80
2021/04/22 06:09:49;;;;;;;25.92;18.05;;;;;;;7.43;78.80;97886.06;1754909;82;21146;-80
2021/04/22 06:12:17;;;;;;;30.30;17.25;;;;;;;7.47;78.28;97887.74;1755167;81;21111;-81
2021/04/22 06:14:44;;;;;;;24.65;15.38;;;;;;;7.57;78.23;97885.78;1754894;82;21150;-80
2021/04/22 06:17:12;;;;;;;27.87;16.05;;;;;;;7.66;77.67;97882.97;1755069;82;21163;-78
2021/04/22 06:19:40;;;;;;;24.00;15.85;;;;;;;7.73;77.63;97886.36;1755008;82;21138;-80
2021/04/22 06:22:08;;;;;;;25.08;15.83;;;;;;;7.83;77.54;97882.63;1754138;82;21499;-76
2021/04/22 06:24:35;;;;;;;28.98;16.57;;;;;;;7.96;77.17;97882.36;1755072;82;21123;-76
2021/04/22 06:27:04;;;;;;;27.65;16.60;;;;;;;8.07;76.84;97875.11;1754650;82;21134;-76
2021/04/22 06:29:31;;;;;;;25.92;15.58;;;;;;;8.21;76.56;97875.27;1754845;82;21104;-76
2021/04/22 06:31:59;;;;;;;21.62;14.63;;;;;;;8.29;76.18;97867.59;1739098;81;21155;-76
2021/04/22 06:34:27;;;;;;;25.48;16.23;;;;;;;8.34;75.98;97863.52;1724980;82;21158;-76
2021/04/22 06:36:59;;;;;;;25.32;15.08;;;;;;;8.45;76.38;97867.23;1725405;82;21158;-76
2021/04/22 06:39:24;;;;;;;25.35;15.05;;;;;;;8.57;76.40;97863.03;1724743;83;21505;-78
2021/04/22 06:41:52;;;;;;;24.40;14.45;;;;;;;8.73;76.52;97861.34;1734103;82;21123;-79
2021/04/22 06:44:20;;;;;;;18.85;12.93;;;;;;;8.87;75.83;97858.79;1754595;82;21470;-79
2021/04/22 06:46:48;;;;;;;22.98;13.60;;;;;;;9.00;74.70;97855.41;1754963;82;21280;-79
2021/04/22 06:49:15;;;;;;;20.65;13.15;;;;;;;9.17;74.46;97853.66;1737928;82;21103;-79
2021/04/22 06:51:43;;;;;;;18.57;12.80;;;;;;;9.29;73.60;97849.34;1740971;82;21126;-79
2021/04/22 06:54:11;;;;;;;18.02;12.37;;;;;;;9.40;73.41;97862.73;1735027;82;21134;-78
2021/04/22 06:56:39;;;;;;;20.68;13.48;;;;;;;9.47;72.09;97861.20;1745946;80;21461;-79
2021/04/22 06:59:07;;;;;;;20.68;13.60;;;;;;;9.56;72.51;97862.75;1734657;80;21158;-79
2021/04/22 07:01:35;;;;;;;25.60;14.00;;;;;;;9.64;72.46;97866.03;1678839;84;21179;-79
2021/04/22 07:04:03;;;;;;;19.12;12.70;;;;;;;9.68;71.53;97867.28;1747966;82;21083;-78
2021/04/22 07:06:31;;;;;;;20.30;13.30;;;;;;;9.69;71.55;97868.56;1738098;82;21102;-78
2021/04/22 07:08:59;;;;;;;24.15;14.35;;;;;;;9.74;72.08;97865.77;1724853;83;21521;-78
2021/04/22 07:11:27;;;;;;;26.33;16.32;;;;;;;9.82;72.21;97873.05;1734942;82;21111;-78
2021/04/22 07:13:55;;;;;;;24.65;15.35;;;;;;;9.89;71.83;97873.75;1738801;82;21123;-79
2021/04/22 07:16:24;;;;;;;22.00;15.45;;;;;;;9.92;70.87;97873.64;1667974;85;21498;-78
2021/04/22 07:18:52;;;;;;;22.87;14.78;;;;;;;9.94;70.78;97872.27;1735636;82;21111;-82
2021/04/22 07:21:26;;;;;;;24.15;14.43;;;;;;;10.00;71.07;97875.61;1734026;82;21180;-84
2021/04/22 07:24:00;;;;;;;22.07;15.08;;;;;;;10.08;71.23;97875.39;1709578;82;21135;-81
2021/04/22 07:26:43;;;;;;;24.55;14.75;;;;;;;10.15;71.16;97875.63;1714044;82;21138;-81
2021/04/22 07:29:54;;;;;;;;;;;;;;;;;;;;;
2021/04/22 07:32:41;;;;;;;21.82;14.87;;;;;;;10.35;71.21;97870.63;1714861;82;21190;-82
2021/04/22 07:38:41;;;;;;;21.77;13.90;;;;;;;10.70;70.55;97871.33;1803053;79;27288;-83
2021/04/22 07:41:31;;;;;;;20.57;13.80;;;;;;;10.74;69.50;97869.00;1737777;81;21122;-82
2021/04/22 07:44:11;;;;;;;21.37;14.50;;;;;;;10.87;69.21;97878.74;1719962;81;21657;-84
2021/04/22 07:47:02;;;;;;;19.87;13.22;;;;;;;11.00;69.96;97876.55;1771551;81;21172;-83
2021/04/22 07:49:42;;;;;;;20.37;14.43;;;;;;;11.13;69.60;97870.38;1708207;82;21535;-85
2021/04/22 07:52:15;;;;;;;25.60;14.33;;;;;;;11.22;68.91;97869.21;1707843;81;21138;-83
2021/04/22 07:54:57;;;;;;;21.40;14.20;;;;;;;11.32;69.01;97869.30;1721397;82;21512;-84
2021/04/22 07:57:35;;;;;;;21.02;14.50;;;;;;;11.42;68.49;97867.17;1697190;84;21554;-84
2021/04/22 08:00:14;;;;;;;25.20;14.30;;;;;;;11.56;68.54;97864.50;1684638;82;21125;-83
2021/04/22 08:03:25;;;;;;;21.10;14.43;;;;;;;11.75;68.35;97858.05;1733274;82;21209;-84
2021/04/22 08:06:37;;;;;;;21.77;14.13;;;;;;;12.06;66.80;97854.75;1716376;82;21100;-86
2021/04/22 08:09:38;;;;;;;20.12;13.60;;;;;;;12.32;64.92;97848.44;1729102;81;21054;-85
2021/04/22 08:12:49;;;;;;;;;;;;;;;;;;;;;
2021/04/22 08:16:13;;;;;;;21.48;14.45;;;;;;;12.91;65.45;97844.77;1741110;81;21189;-87
2021/04/22 08:19:39;;;;;;;;;;;;;;;;;;;;;
2021/04/22 08:22:40;;;;;;;23.02;12.73;;;;;;;13.33;62.53;97849.66;1648423;86;21241;-83
2021/04/22 08:25:56;;;;;;;19.10;12.88;;;;;;;13.43;63.41;97854.13;1593696;87;21264;-86
2021/04/22 08:39:28;;;;;;;20.05;13.35;;;;;;;13.50;62.75;97856.09;1884853;75;22292;-85
2021/04/22 08:42:07;;;;;;;19.10;14.18;;;;;;;13.50;62.54;97849.44;1798461;78;21193;-83
2021/04/22 08:45:07;;;;;;;23.62;14.33;;;;;;;13.67;62.73;97842.00;1818247;78;23108;-85
2021/04/22 08:48:12;;;;;;;21.40;14.45;;;;;;;13.67;62.17;97845.16;1793663;78;21114;-83
2021/04/22 08:51:12;;;;;;;20.05;13.88;;;;;;;13.73;62.15;97844.42;1740885;81;21075;-85
2021/04/22 08:54:13;;;;;;;22.42;14.10;;;;;;;13.84;62.70;97835.91;1737988;81;21118;-84
2021/04/22 08:56:58;;;;;;;19.20;13.83;;;;;;;13.96;61.91;97832.31;1778476;78;21103;-85
2021/04/22 08:59:54;;;;;;;22.42;14.43;;;;;;;14.09;60.82;97837.48;1793718;78;21114;-83
2021/04/22 09:02:39;;;;;;;20.97;13.98;;;;;;;14.20;61.01;97836.95;1751002;80;21100;-82
2021/04/22 09:05:22;;;;;;;20.08;14.58;;;;;;;14.30;60.18;97844.06;1781479;78;21128;-83
2021/04/22 09:08:44;;;;;;;18.52;13.90;;;;;;;14.32;60.17;97842.18;1806785;78;21106;-82
2021/04/22 09:11:46;;;;;;;19.40;13.55;;;;;;;14.45;59.60;97843.79;1808643;78;21102;-84
2021/04/22 09:14:53;;;;;;;19.30;13.60;;;;;;;14.66;58.69;97834.38;1789158;79;27589;-82
2021/04/22 09:17:42;;;;;;;15.80;12.53;;;;;;;14.74;57.37;97845.52;1765277;79;21146;-83
2021/04/22 09:20:57;;;;;;;;;;;;;;;;;;;;;
2021/04/22 09:24:17;;;;;;;15.93;11.90;;;;;;;15.16;57.84;97833.29;1694962;83;21511;-81
2021/04/22 09:27:35;;;;;;;15.83;11.43;;;;;;;15.49;56.31;97820.94;1810648;79;24778;-81
2021/04/22 09:30:46;;;;;;;17.67;12.80;;;;;;;15.61;55.81;97826.11;1746529;82;21163;-83
2021/04/22 09:33:29;;;;;;;15.45;11.97;;;;;;;15.92;54.26;97819.11;1732818;82;21106;-83
2021/04/22 09:36:17;;;;;;;15.58;12.70;;;;;;;16.21;54.83;97818.89;1693066;82;21110;-83
2021/04/22 09:38:57;;;;;;;17.67;11.73;;;;;;;16.48;52.61;97818.27;1729346;82;21644;-81
2021/04/22 09:41:26;;;;;;;19.77;13.45;;;;;;;16.59;52.20;97816.33;1722915;82;21509;-83
2021/04/22 09:44:10;;;;;;;17.48;13.03;;;;;;;16.60;49.63;97823.86;1797680;79;21154;-82
2021/04/22 09:46:47;;;;;;;13.90;11.20;;;;;;;16.50;50.25;97818.19;1788401;79;21071;-83
2021/04/22 09:49:24;;;;;;;16.25;11.97;;;;;;;16.33;48.57;97815.98;1757260;80;21472;-86
2021/04/22 09:52:16;;;;;;;15.90;12.65;;;;;;;16.15;49.50;97817.88;1757038;80;21120;-85
2021/04/22 09:55:18;;;;;;;16.82;12.55;;;;;;;15.97;49.21;97819.75;1791486;79;21234;-82
2021/04/22 09:57:50;;;;;;;18.90;12.98;;;;;;;15.78;49.77;97809.18;1793731;79;21154;-83
2021/04/22 10:00:31;;;;;;;19.75;14.20;;;;;;;15.78;51.58;97806.50;1793439;79;21189;-84
2021/04/22 10:03:12;;;;;;;17.80;14.03;;;;;;;15.82;52.68;97799.56;1729683;81;21190;-83
2021/04/22 10:05:41;;;;;;;21.93;13.38;;;;;;;15.94;53.10;97797.19;1754290;81;21157;-81
2021/04/22 10:08:17;;;;;;;18.02;12.53;;;;;;;16.02;53.02;97796.30;1818558;78;21170;-84
2021/04/22 10:11:05;;;;;;;15.48;12.23;;;;;;;16.14;52.95;97792.09;1709698;80;21152;-83
2021/04/22 10:13:45;;;;;;;14.15;11.35;;;;;;;16.16;49.79;97794.69;1781503;80;21184;-82
2021/04/22 10:16:17;;;;;;;12.90;9.43;;;;;;;15.99;49.19;97792.95;1788575;79;21213;-82
2021/04/22 10:18:48;;;;;;;10.80;8.25;;;;;;;15.87;48.84;97803.34;1796691;79;21127;-83
2021/04/22 10:21:16;;;;;;;11.08;7.97;;;;;;;15.73;47.62;97805.40;1803139;79;21130;-83
2021/04/22 10:23:45;;;;;;;10.95;7.95;;;;;;;15.70;48.05;97809.10;1797964;79;21111;-83
2021/04/22 10:26:19;;;;;;;10.65;7.92;;;;;;;15.58;46.28;97811.95;1763161;79;21137;-83
2021/04/22 10:28:47;;;;;;;13.43;9.00;;;;;;;15.50;46.43;97807.97;1782561;79;21184;-84
2021/04/22 10:31:17;;;;;;;10.40;8.50;;;;;;;15.56;46.58;97806.30;1763607;79;21127;-85
2021/04/22 10:33:45;;;;;;;15.13;9.28;;;;;;;15.51;47.90;97805.69;1776503;79;21308;-83
2021/04/22 10:36:19;;;;;;;12.93;9.00;;;;;;;15.51;47.52;97803.02;1761821;79;127863;-84
2021/04/22 10:38:51;;;;;;;11.90;9.15;;;;;;;15.57;47.80;97804.02;1639215;87;21502;-83
2021/04/22 10:41:30;;;;;;;13.13;10.68;;;;;;;15.65;48.34;97811.65;1677101;82;108343;-83
2021/04/22 10:44:02;;;;;;;14.70;9.53;;;;;;;15.52;48.12;97818.08;1731767;82;21090;-83
2021/04/22 10:46:31;;;;;;;15.32;10.58;;;;;;;15.38;48.51;97818.82;1727921;82;21125;-84
2021/04/22 10:49:04;;;;;;;13.78;9.93;;;;;;;15.07;52.21;97801.73;1731508;82;21165;-83
2021/04/22 10:51:34;;;;;;;14.05;10.58;;;;;;;14.71;54.14;97801.67;1729458;82;21121;-83
2021/04/22 10:54:05;;;;;;;15.98;11.48;;;;;;;14.35;55.55;97799.39;1733461;82;21166;-84
2021/04/22 10:56:33;;;;;;;18.55;11.63;;;;;;;14.03;55.93;97799.59;1729777;82;21120;-85
2021/04/22 10:59:03;;;;;;;13.10;11.10;;;;;;;13.76;57.43;97807.91;1733330;82;21503;-84
2021/04/22 11:01:38;;;;;;;17.10;11.48;;;;;;;13.62;58.82;97806.73;1728949;82;21559;-84
2021/04/22 11:04:10;;;;;;;15.43;11.53;;;;;;;14.18;57.80;97809.53;1727852;82;21129;-82
2021/04/22 11:06:42;;;;;;;15.15;11.28;;;;;;;14.60;56.59;97795.98;1730830;82;21102;-83
2021/04/22 11:09:15;;;;;;;15.78;11.80;;;;;;;14.47;57.24;97802.39;1732218;82;21129;-77
2021/04/22 11:12:02;;;;;;;15.90;11.33;;;;;;;14.44;57.25;97794.53;1736632;82;21143;-79
2021/04/22 11:14:43;;;;;;;15.98;11.22;;;;;;;14.34;57.60;97800.80;1729147;82;21118;-80
2021/04/22 11:17:14;;;;;;;20.12;11.33;;;;;;;14.38;56.76;97823.70;1720232;82;21117;-81
2021/04/22 11:19:52;;;;;;;17.43;11.67;;;;;;;14.76;56.09;97828.14;1730731;82;21142;-82
2021/04/22 11:25:25;;;;;;;17.67;12.80;;;;;;;14.98;56.78;97829.72;1823068;76;23416;-81
2021/04/22 11:28:10;;;;;;;18.27;12.20;;;;;;;15.09;56.42;97826.06;1729733;78;21498;-82
2021/04/22 11:30:41;;;;;;;16.07;12.00;;;;;;;16.17;57.11;97806.63;1792018;78;21481;-82
2021/04/22 11:33:12;;;;;;;14.93;10.72;;;;;;;17.26;55.63;97800.45;1823351;78;21114;-83
2021/04/22 11:35:47;;;;;;;15.70;10.25;;;;;;;18.27;54.54;97787.17;1773886;77;21132;-82
2021/04/22 11:38:15;;;;;;;10.63;9.53;;;;;;;19.36;52.96;97780.02;1773409;80;21123;-81
2021/04/22 11:40:47;;;;;;;9.48;8.53;;;;;;;20.48;49.82;97766.76;1736414;79;21114;-80
2021/04/22 11:43:47;;;;;;;9.35;7.72;;;;;;;21.40;46.90;97757.20;1754504;81;21130;-82
2021/04/22 11:46:16;;;;;;;9.08;7.60;;;;;;;22.19;42.98;97750.12;1722487;82;21599;-80
2021/04/22 11:48:44;;;;;;;7.55;6.50;;;;;;;22.95;39.83;97737.62;1740101;81;21556;-80
2021/04/22 11:51:17;;;;;;;7.00;5.22;;;;;;;23.66;36.16;97726.62;1713400;84;21482;-81
2021/04/22 11:53:52;;;;;;;6.28;4.90;;;;;;;24.27;35.22;97710.48;1715734;82;21100;-82
2021/04/22 11:56:22;;;;;;;6.17;5.58;;;;;;;24.51;33.25;97703.81;1755650;81;21480;-82
2021/04/22 11:58:50;;;;;;;6.08;5.40;;;;;;;25.05;33.05;97696.63;1734031;82;21539;-83
2021/04/22 12:01:23;;;;;;;7.25;5.62;;;;;;;25.72;32.07;97693.52;1732583;81;21177;-83
2021/04/22 12:03:55;;;;;;;6.37;5.72;;;;;;;25.67;30.67;97689.42;1748541;81;21477;-85
2021/04/22 12:06:29;;;;;;;6.00;5.40;;;;;;;25.56;27.97;97676.89;1724305;81;21086;-84
2021/04/22 12:09:09;;;;;;;5.28;4.70;;;;;;;25.75;29.59;97671.03;1734507;81;21095;-85
2021/04/22 12:11:41;;;;;;;5.62;5.05;;;;;;;25.62;27.65;97656.42;1735619;82;21495;-82
2021/04/22 12:14:14;;;;;;;5.80;4.90;;;;;;;25.95;29.97;97650.57;1722091;81;21123;-84
2021/04/22 12:17:02;;;;;;;4.80;3.77;;;;;;;26.54;30.59;97647.95;1705241;84;21323;-85
2021/04/22 12:19:33;;;;;;;4.03;3.62;;;;;;;27.13;28.53;97636.55;1749955;81;21116;-84